Time;durP1;ratioP1;P1;durP2;ratioP2;P2;SDS_P1;SDS_P2;PMS_P1;PMS_P2;Temp;Humidity;BMP_temperature;BMP_pressure;BME280_temperature;BME280_humidity;BME280_pressure;Samples;Min_cycle;Max_cycle;Signal;HPM_P1;HPM_P2
2022/07/09 00:01:02;;;;;;;0.10;0.10;;;17.20;99.90;;;;;;6210036;23;20095;-83
2022/07/09 00:03:28;;;;;;;0.10;0.10;;;17.20;99.90;;;;;;6211718;23;20095;-85
2022/07/09 00:05:53;;;;;;;0.20;0.20;;;17.30;99.90;;;;;;6209661;23;20102;-83
2022/07/09 00:08:19;;;;;;;0.10;0.10;;;17.20;99.90;;;;;;6211452;23;20322;-82
2022/07/09 00:10:45;;;;;;;0.20;0.20;;;17.20;99.90;;;;;;6212250;23;20070;-82
2022/07/09 00:13:10;;;;;;;0.10;0.10;;;17.20;99.90;;;;;;6182298;23;20492;-82
2022/07/09 00:15:36;;;;;;;0.20;0.20;;;17.30;99.90;;;;;;6210695;23;20012;-82
2022/07/09 00:18:02;;;;;;;0.15;0.15;;;17.30;99.90;;;;;;6209433;23;20009;-82
2022/07/09 00:20:28;;;;;;;0.20;0.20;;;17.30;99.90;;;;;;6185801;23;20074;-82
2022/07/09 00:22:54;;;;;;;0.10;0.10;;;17.30;99.90;;;;;;6209895;23;20337;-83
2022/07/09 00:25:21;;;;;;;0.20;0.20;;;17.30;99.90;;;;;;6210583;23;20095;-82
2022/07/09 00:27:46;;;;;;;0.10;0.10;;;17.30;99.90;;;;;;6184218;23;20082;-83
2022/07/09 00:30:12;;;;;;;0.17;0.17;;;17.40;99.90;;;;;;6208902;23;20024;-83
2022/07/09 00:32:39;;;;;;;0.10;0.10;;;17.40;99.90;;;;;;6210383;23;20020;-83
2022/07/09 00:35:05;;;;;;;0.20;0.20;;;17.20;99.90;;;;;;6209717;23;20083;-83
2022/07/09 00:37:31;;;;;;;0.20;0.20;;;17.30;99.90;;;;;;6184864;23;20055;-83
2022/07/09 00:39:56;;;;;;;0.17;0.17;;;17.30;99.90;;;;;;6209410;23;20020;-84
2022/07/09 00:42:24;;;;;;;0.20;0.20;;;17.30;99.90;;;;;;6209955;23;20012;-83
2022/07/09 00:44:55;;;;;;;0.15;0.15;;;17.30;99.90;;;;;;6210288;23;20144;-83
2022/07/09 00:47:21;;;;;;;0.10;0.10;;;17.30;99.90;;;;;;6209447;23;20017;-83
2022/07/09 00:49:48;;;;;;;0.20;0.20;;;17.30;99.90;;;;;;6211488;23;20048;-83
2022/07/09 00:52:14;;;;;;;0.20;0.20;;;17.40;99.90;;;;;;6211628;23;20079;-83
2022/07/09 00:54:41;;;;;;;0.10;0.10;;;17.40;99.90;;;;;;6209305;23;20013;-83
2022/07/09 00:57:09;;;;;;;0.17;0.17;;;17.40;99.90;;;;;;6210543;23;20075;-83
2022/07/09 00:59:36;;;;;;;0.20;0.20;;;17.40;99.90;;;;;;6209838;23;20054;-82
2022/07/09 01:02:03;;;;;;;0.10;0.10;;;17.40;99.90;;;;;;6208939;23;20221;-83
2022/07/09 01:04:29;;;;;;;0.10;0.10;;;17.40;99.90;;;;;;6181756;23;20514;-83
2022/07/09 01:06:54;;;;;;;0.10;0.10;;;17.40;99.90;;;;;;6210269;23;20091;-83
2022/07/09 01:09:24;;;;;;;0.10;0.10;;;17.40;99.90;;;;;;6209567;23;20386;-82
2022/07/09 01:11:50;;;;;;;0.10;0.10;;;17.40;99.90;;;;;;6211544;23;20072;-84
2022/07/09 01:14:16;;;;;;;0.20;0.20;;;17.40;99.90;;;;;;6209397;23;20017;-83
2022/07/09 01:16:41;;;;;;;0.20;0.20;;;17.40;99.90;;;;;;6207794;23;20047;-82
2022/07/09 01:19:08;;;;;;;0.13;0.13;;;17.30;99.90;;;;;;6184453;23;20013;-82
2022/07/09 01:21:34;;;;;;;0.10;0.10;;;17.30;99.90;;;;;;6209663;23;20381;-83
2022/07/09 01:24:00;;;;;;;0.20;0.20;;;17.30;99.90;;;;;;6209582;23;20012;-83
2022/07/09 01:26:27;;;;;;;0.20;0.20;;;17.40;99.90;;;;;;6210529;23;20025;-83
2022/07/09 01:28:53;;;;;;;0.17;0.17;;;17.30;99.90;;;;;;6208401;23;20024;-84
2022/07/09 01:31:19;;;;;;;0.10;0.10;;;17.30;99.90;;;;;;6211831;23;20079;-84
2022/07/09 01:33:45;;;;;;;0.10;0.10;;;17.40;99.90;;;;;;6209487;23;20013;-83
2022/07/09 01:36:11;;;;;;;0.20;0.20;;;17.30;99.90;;;;;;6207910;23;20410;-83
2022/07/09 01:38:40;;;;;;;0.10;0.10;;;17.40;99.90;;;;;;6182875;23;20029;-83
2022/07/09 01:41:05;;;;;;;0.20;0.20;;;17.30;99.90;;;;;;6210389;23;20020;-83
2022/07/09 01:43:33;;;;;;;0.10;0.10;;;17.40;99.90;;;;;;6182476;23;20016;-83
2022/07/09 01:46:00;;;;;;;0.10;0.10;;;17.30;99.90;;;;;;6210152;23;20327;-84
2022/07/09 01:48:26;;;;;;;0.20;0.20;;;17.30;99.90;;;;;;6211504;23;20020;-83
2022/07/09 01:50:53;;;;;;;0.10;0.10;;;17.30;99.90;;;;;;6182333;23;20019;-83
2022/07/09 01:53:19;;;;;;;0.20;0.20;;;17.30;99.90;;;;;;6182241;23;20028;-82
2022/07/09 01:55:45;;;;;;;0.10;0.10;;;17.30;99.90;;;;;;6209524;23;20016;-83
2022/07/09 01:58:10;;;;;;;0.17;0.17;;;17.40;99.90;;;;;;6209392;23;20124;-83
2022/07/09 02:00:36;;;;;;;0.10;0.10;;;17.30;99.90;;;;;;6183875;23;20056;-82
2022/07/09 02:03:01;;;;;;;0.10;0.10;;;17.30;99.90;;;;;;6182437;23;20579;-83
2022/07/09 02:05:27;;;;;;;0.20;0.20;;;17.30;99.90;;;;;;6210161;23;20017;-83
2022/07/09 02:07:53;;;;;;;0.10;0.10;;;17.30;99.90;;;;;;6181205;23;20059;-84
2022/07/09 02:10:18;;;;;;;0.10;0.10;;;17.20;99.90;;;;;;6210669;23;20047;-83
2022/07/09 02:12:44;;;;;;;0.10;0.10;;;17.30;99.90;;;;;;6208897;23;20020;-82
2022/07/09 02:15:13;;;;;;;0.10;0.10;;;17.30;99.90;;;;;;6208651;23;20016;-83
2022/07/09 02:17:38;;;;;;;0.10;0.10;;;17.30;99.90;;;;;;6184840;23;20028;-83
2022/07/09 02:20:05;;;;;;;0.10;0.10;;;17.30;99.90;;;;;;6211353;23;20441;-82
2022/07/09 02:22:31;;;;;;;0.10;0.10;;;17.30;99.90;;;;;;6211460;23;20021;-82
2022/07/09 02:24:57;;;;;;;0.13;0.13;;;17.30;99.90;;;;;;6208366;23;20555;-83
2022/07/09 02:27:22;;;;;;;0.10;0.10;;;17.30;99.90;;;;;;6210809;23;20021;-83
2022/07/09 02:29:48;;;;;;;0.10;0.10;;;17.30;99.90;;;;;;6208191;23;20425;-81
2022/07/09 02:32:14;;;;;;;0.10;0.10;;;17.20;99.90;;;;;;6209051;23;20322;-82
2022/07/09 02:34:39;;;;;;;0.10;0.10;;;17.20;99.90;;;;;;6182701;23;20040;-82
2022/07/09 02:37:06;;;;;;;0.15;0.15;;;17.20;99.90;;;;;;6209911;23;20020;-82
2022/07/09 02:39:31;;;;;;;0.10;0.10;;;17.20;99.90;;;;;;6208094;23;20016;-83
2022/07/09 02:41:57;;;;;;;0.20;0.20;;;17.20;99.90;;;;;;6209185;23;20180;-82
2022/07/09 02:44:23;;;;;;;0.20;0.20;;;17.20;99.90;;;;;;6209367;23;20341;-82
2022/07/09 02:46:48;;;;;;;0.20;0.20;;;17.30;99.90;;;;;;6180798;23;20079;-82
2022/07/09 02:49:14;;;;;;;0.10;0.10;;;17.20;99.90;;;;;;6180898;23;20100;-81
2022/07/09 02:51:40;;;;;;;0.20;0.20;;;17.20;99.90;;;;;;6208723;23;20023;-82
2022/07/09 02:54:06;;;;;;;0.20;0.20;;;17.20;99.90;;;;;;6208431;23;20020;-82
2022/07/09 02:56:32;;;;;;;0.10;0.10;;;17.10;99.90;;;;;;6210530;23;20025;-82
2022/07/09 02:58:57;;;;;;;0.20;0.20;;;17.20;99.90;;;;;;6207085;23;20021;-82
2022/07/09 03:01:23;;;;;;;0.10;0.10;;;17.20;99.90;;;;;;6208028;23;20346;-82
2022/07/09 03:03:49;;;;;;;0.10;0.10;;;17.20;99.90;;;;;;6209195;23;20510;-82
2022/07/09 03:06:15;;;;;;;0.10;0.10;;;17.20;99.90;;;;;;6210042;23;20017;-82
2022/07/09 03:08:40;;;;;;;0.20;0.20;;;17.10;99.90;;;;;;6208017;23;20079;-82
2022/07/09 03:11:06;;;;;;;0.10;0.10;;;17.10;99.90;;;;;;6210098;23;20009;-82
2022/07/09 03:13:36;;;;;;;0.10;0.10;;;17.20;99.90;;;;;;6209173;23;20389;-81
2022/07/09 03:16:02;;;;;;;0.10;0.10;;;17.10;99.90;;;;;;6180490;23;20465;-82
2022/07/09 03:18:28;;;;;;;0.10;0.10;;;17.10;99.90;;;;;;6183357;23;20070;-81
2022/07/09 03:20:54;;;;;;;0.10;0.10;;;17.10;99.90;;;;;;6182114;23;20257;-81
2022/07/09 03:23:19;;;;;;;0.10;0.10;;;17.10;99.90;;;;;;6184691;23;20564;-82
2022/07/09 03:25:45;;;;;;;0.10;0.10;;;17.10;99.90;;;;;;6184540;23;20021;-82
2022/07/09 03:28:10;;;;;;;0.10;0.10;;;17.10;99.90;;;;;;6210608;23;20016;-82
2022/07/09 03:30:36;;;;;;;0.10;0.10;;;17.10;99.90;;;;;;6184105;23;20313;-83
2022/07/09 03:33:02;;;;;;;0.10;0.10;;;17.10;99.90;;;;;;6184185;23;20274;-82
2022/07/09 03:35:27;;;;;;;0.10;0.10;;;17.10;99.90;;;;;;6211802;23;20183;-82
2022/07/09 03:37:53;;;;;;;0.10;0.10;;;17.20;99.90;;;;;;6182137;23;20044;-82
2022/07/09 03:40:19;;;;;;;0.10;0.10;;;17.10;99.90;;;;;;6211717;23;20020;-82
2022/07/09 03:42:44;;;;;;;0.20;0.20;;;17.10;99.90;;;;;;6209266;23;20044;-83
2022/07/09 03:45:10;;;;;;;0.10;0.10;;;17.10;99.90;;;;;;6211047;23;20075;-82
2022/07/09 03:47:36;;;;;;;0.10;0.10;;;17.10;99.90;;;;;;6212273;23;20040;-81
2022/07/09 03:50:02;;;;;;;0.20;0.20;;;17.00;99.90;;;;;;6211213;23;20440;-82
2022/07/09 03:52:28;;;;;;;0.20;0.20;;;17.00;99.90;;;;;;6211816;23;20017;-82
2022/07/09 03:54:54;;;;;;;0.10;0.10;;;17.00;99.90;;;;;;6210163;23;20032;-82
2022/07/09 03:57:19;;;;;;;0.15;0.15;;;17.00;99.90;;;;;;6183278;23;20441;-82
2022/07/09 03:59:45;;;;;;;0.13;0.13;;;17.00;99.90;;;;;;6210570;23;20500;-82
2022/07/09 04:02:11;;;;;;;0.20;0.20;;;17.10;99.90;;;;;;6184229;23;20441;-82
2022/07/09 04:04:36;;;;;;;0.10;0.10;;;17.10;99.90;;;;;;6184068;23;20031;-82
2022/07/09 04:07:02;;;;;;;0.10;0.10;;;17.20;99.90;;;;;;6212288;23;20518;-82
2022/07/09 04:09:28;;;;;;;0.20;0.20;;;17.10;99.90;;;;;;6211846;23;20471;-82
2022/07/09 04:11:53;;;;;;;0.20;0.20;;;17.00;99.90;;;;;;6208093;23;20008;-80
2022/07/09 04:14:19;;;;;;;0.20;0.20;;;17.10;99.90;;;;;;6182576;23;20024;-82
2022/07/09 04:16:46;;;;;;;0.10;0.10;;;17.10;99.90;;;;;;6185517;23;20020;-82
2022/07/09 04:19:12;;;;;;;0.10;0.10;;;17.10;99.90;;;;;;6184659;23;20622;-83
2022/07/09 04:21:37;;;;;;;0.10;0.10;;;17.10;99.90;;;;;;6185734;23;20020;-82
2022/07/09 04:24:04;;;;;;;0.13;0.13;;;17.20;99.90;;;;;;6210637;23;20017;-83
2022/07/09 04:26:29;;;;;;;0.10;0.10;;;17.10;99.90;;;;;;6184557;23;20039;-82
2022/07/09 04:28:55;;;;;;;0.10;0.10;;;17.00;99.90;;;;;;6184083;23;20020;-82
2022/07/09 04:31:21;;;;;;;0.15;0.15;;;17.10;99.90;;;;;;6210980;23;20551;-83
2022/07/09 04:33:47;;;;;;;0.20;0.20;;;17.00;99.90;;;;;;6210880;23;20093;-83
2022/07/09 04:36:13;;;;;;;0.10;0.10;;;17.20;99.90;;;;;;6211753;23;20016;-83
2022/07/09 04:38:38;;;;;;;0.20;0.20;;;17.20;99.90;;;;;;6184229;23;20020;-82
2022/07/09 04:41:04;;;;;;;0.10;0.10;;;17.20;99.90;;;;;;6184308;23;20460;-83
2022/07/09 04:43:31;;;;;;;0.10;0.10;;;17.20;99.90;;;;;;6211661;23;20155;-83
2022/07/09 04:45:57;;;;;;;0.10;0.10;;;17.20;99.90;;;;;;6184495;23;20020;-83
2022/07/09 04:48:23;;;;;;;0.20;0.20;;;17.20;99.90;;;;;;6212010;23;20035;-83
2022/07/09 04:50:48;;;;;;;0.10;0.10;;;17.30;99.90;;;;;;6211463;23;20544;-83
2022/07/09 04:53:14;;;;;;;0.10;0.10;;;17.30;99.90;;;;;;6211107;23;20013;-83
2022/07/09 04:55:39;;;;;;;0.20;0.20;;;17.30;99.90;;;;;;6185723;23;20048;-82
2022/07/09 04:58:05;;;;;;;0.10;0.10;;;17.20;99.90;;;;;;6182814;23;20016;-83
2022/07/09 05:00:33;;;;;;;0.10;0.10;;;17.30;99.90;;;;;;6184133;23;20357;-82
2022/07/09 05:02:59;;;;;;;0.10;0.10;;;17.40;99.90;;;;;;6213332;23;20016;-84
2022/07/09 05:05:25;;;;;;;0.20;0.20;;;17.40;99.90;;;;;;6191359;23;20036;-82
2022/07/09 05:07:51;;;;;;;0.20;0.20;;;17.40;99.90;;;;;;6211232;23;20024;-83
2022/07/09 05:10:18;;;;;;;0.20;0.20;;;17.30;99.90;;;;;;6185803;23;20087;-82
2022/07/09 05:12:43;;;;;;;0.10;0.10;;;17.40;99.90;;;;;;6210661;23;20095;-82
2022/07/09 05:15:10;;;;;;;0.17;0.17;;;17.40;99.90;;;;;;6210660;23;20350;-83
2022/07/09 05:17:36;;;;;;;0.20;0.20;;;17.50;99.90;;;;;;6184724;23;20020;-83
2022/07/09 05:20:07;;;;;;;0.13;0.13;;;17.50;99.90;;;;;;6182694;23;20044;-82
2022/07/09 05:22:34;;;;;;;0.10;0.10;;;17.50;99.90;;;;;;6182964;23;20062;-82
2022/07/09 05:25:01;;;;;;;0.20;0.20;;;17.50;99.90;;;;;;6183490;23;20685;-83
2022/07/09 05:27:27;;;;;;;0.20;0.20;;;17.50;99.90;;;;;;6210713;23;20028;-83
2022/07/09 05:29:53;;;;;;;0.20;0.20;;;17.50;99.90;;;;;;6181894;23;20098;-82
2022/07/09 05:32:19;;;;;;;0.10;0.10;;;17.50;99.90;;;;;;6183226;23;20655;-83
2022/07/09 05:34:44;;;;;;;0.10;0.10;;;17.50;99.90;;;;;;6209659;23;20092;-83
2022/07/09 05:37:10;;;;;;;0.10;0.10;;;17.50;99.90;;;;;;6210482;23;20092;-82
2022/07/09 05:39:36;;;;;;;0.10;0.10;;;17.70;99.90;;;;;;6183223;23;20098;-83
2022/07/09 05:42:01;;;;;;;0.20;0.20;;;17.70;99.90;;;;;;6210014;23;20020;-83
2022/07/09 05:44:27;;;;;;;0.20;0.20;;;17.70;99.90;;;;;;6209333;23;20047;-83
2022/07/09 05:46:52;;;;;;;0.10;0.10;;;17.70;99.90;;;;;;6212004;23;20433;-84
2022/07/09 05:49:18;;;;;;;0.10;0.10;;;17.70;99.90;;;;;;6209465;23;20377;-84
2022/07/09 05:51:44;;;;;;;0.20;0.20;;;17.80;99.90;;;;;;6183588;23;20017;-84
2022/07/09 05:54:09;;;;;;;0.17;0.17;;;17.70;99.90;;;;;;6183653;23;20191;-82
2022/07/09 05:56:36;;;;;;;0.10;0.10;;;17.70;99.90;;;;;;6182993;23;20099;-82
2022/07/09 05:59:03;;;;;;;0.20;0.20;;;17.80;99.90;;;;;;6208428;23;20016;-82
2022/07/09 06:01:29;;;;;;;0.10;0.10;;;17.90;99.90;;;;;;6210237;23;20044;-83
2022/07/09 06:03:54;;;;;;;0.10;0.10;;;17.80;99.90;;;;;;6207895;23;20027;-83
2022/07/09 06:06:20;;;;;;;0.10;0.10;;;17.80;99.90;;;;;;6211290;23;20120;-84
2022/07/09 06:08:45;;;;;;;0.20;0.20;;;17.90;99.90;;;;;;6182754;23;20362;-83
2022/07/09 06:11:12;;;;;;;0.20;0.20;;;17.90;99.90;;;;;;6182507;23;20111;-83
2022/07/09 06:13:37;;;;;;;0.20;0.20;;;17.90;99.90;;;;;;6209666;23;20016;-83
2022/07/09 06:16:03;;;;;;;0.20;0.20;;;17.90;99.90;;;;;;6183767;23;20020;-83
2022/07/09 06:18:29;;;;;;;0.10;0.10;;;17.90;99.90;;;;;;6208556;23;20017;-82
2022/07/09 06:20:55;;;;;;;0.10;0.10;;;18.00;99.90;;;;;;6209798;23;20044;-83
2022/07/09 06:23:21;;;;;;;0.20;0.20;;;18.00;99.90;;;;;;6182748;23;20456;-83
2022/07/09 06:25:47;;;;;;;0.20;0.20;;;18.00;99.90;;;;;;6209279;23;20013;-84
2022/07/09 06:28:13;;;;;;;0.20;0.20;;;18.00;99.90;;;;;;6182258;23;20076;-83
2022/07/09 06:30:39;;;;;;;0.20;0.20;;;18.10;99.90;;;;;;6210519;23;20498;-83
2022/07/09 06:33:05;;;;;;;0.15;0.15;;;18.10;99.90;;;;;;6208100;23;20017;-84
2022/07/09 06:35:31;;;;;;;0.20;0.20;;;18.10;99.90;;;;;;6210053;23;20028;-84
2022/07/09 06:37:56;;;;;;;0.10;0.10;;;18.20;99.90;;;;;;6206088;23;20031;-82
2022/07/09 06:40:22;;;;;;;0.10;0.10;;;18.20;99.90;;;;;;6211377;23;20453;-82
2022/07/09 06:42:48;;;;;;;0.17;0.17;;;18.20;99.90;;;;;;6209668;23;20020;-84
2022/07/09 06:45:14;;;;;;;0.20;0.20;;;18.30;99.90;;;;;;6209146;23;20022;-83
2022/07/09 06:47:40;;;;;;;0.10;0.10;;;18.30;99.90;;;;;;6183600;23;20008;-83
2022/07/09 06:50:06;;;;;;;0.10;0.10;;;18.30;99.90;;;;;;6209448;23;20477;-83
2022/07/09 06:52:32;;;;;;;0.20;0.20;;;18.20;99.90;;;;;;6207258;23;20033;-82
2022/07/09 06:54:58;;;;;;;0.20;0.20;;;18.20;99.90;;;;;;6183255;23;20032;-84
2022/07/09 06:57:24;;;;;;;0.20;0.20;;;18.30;99.90;;;;;;6184374;23;20019;-85
2022/07/09 06:59:49;;;;;;;0.10;0.10;;;18.30;99.90;;;;;;6209055;23;20017;-84
2022/07/09 07:02:18;;;;;;;0.10;0.10;;;18.40;99.90;;;;;;6183409;23;20063;-85
2022/07/09 07:04:44;;;;;;;0.15;0.15;;;18.50;99.90;;;;;;6183942;23;20102;-83
2022/07/09 07:07:09;;;;;;;0.20;0.20;;;18.40;99.90;;;;;;6207666;23;20013;-84
2022/07/09 07:09:35;;;;;;;0.20;0.20;;;18.40;99.90;;;;;;6208012;23;20382;-83
2022/07/09 07:12:01;;;;;;;0.10;0.10;;;18.50;99.90;;;;;;6182458;23;20020;-84
2022/07/09 07:14:27;;;;;;;0.20;0.20;;;18.50;99.90;;;;;;6207974;23;20024;-84
2022/07/09 07:16:53;;;;;;;0.10;0.10;;;18.50;99.90;;;;;;6210218;23;20013;-83
2022/07/09 07:19:20;;;;;;;0.13;0.13;;;18.60;99.90;;;;;;6208501;23;20024;-82
2022/07/09 07:21:47;;;;;;;0.20;0.20;;;18.60;99.90;;;;;;6183142;23;20020;-84
2022/07/09 07:24:13;;;;;;;0.10;0.10;;;18.60;99.90;;;;;;6208932;23;20024;-83
2022/07/09 07:26:38;;;;;;;0.17;0.17;;;18.70;99.90;;;;;;6181625;23;20017;-84
2022/07/09 07:29:04;;;;;;;0.10;0.10;;;18.70;99.90;;;;;;6208584;23;20087;-82
2022/07/09 07:31:30;;;;;;;0.20;0.20;;;18.70;99.90;;;;;;6213226;23;20012;-84
2022/07/09 07:33:56;;;;;;;0.10;0.10;;;18.80;99.90;;;;;;6216226;23;20452;-83
2022/07/09 07:36:22;;;;;;;0.10;0.10;;;18.70;99.90;;;;;;6196508;23;20021;-81
2022/07/09 07:38:48;;;;;;;0.20;0.20;;;18.80;99.90;;;;;;6209217;23;20083;-82
2022/07/09 07:41:16;;;;;;;0.10;0.10;;;18.80;99.90;;;;;;6209650;23;20048;-83
2022/07/09 07:43:42;;;;;;;0.10;0.10;;;18.70;99.90;;;;;;6209535;23;20112;-82
2022/07/09 07:46:08;;;;;;;0.20;0.20;;;19.00;99.90;;;;;;6207467;23;20035;-82
2022/07/09 07:48:37;;;;;;;0.10;0.10;;;18.90;99.90;;;;;;6210365;23;20017;-79
2022/07/09 07:51:03;;;;;;;0.10;0.10;;;19.00;99.90;;;;;;6210553;23;20024;-83
2022/07/09 07:53:32;;;;;;;0.13;0.13;;;19.10;99.90;;;;;;6209216;23;20162;-81
2022/07/09 07:56:06;;;;;;;0.10;0.10;;;19.00;99.90;;;;;;6214461;23;20013;-90
2022/07/09 07:58:33;;;;;;;0.20;0.20;;;19.00;99.90;;;;;;6216932;23;20016;-85
2022/07/09 08:00:58;;;;;;;0.20;0.20;;;19.10;99.90;;;;;;6213693;23;20012;-85
2022/07/09 08:03:24;;;;;;;0.20;0.20;;;19.10;99.90;;;;;;6222623;23;20300;-86
2022/07/09 08:05:53;;;;;;;0.10;0.10;;;19.20;99.90;;;;;;6214213;23;20091;-86
2022/07/09 08:08:19;;;;;;;0.20;0.20;;;19.20;99.90;;;;;;6210914;23;20047;-85
2022/07/09 08:10:45;;;;;;;0.10;0.10;;;19.30;99.90;;;;;;6211175;23;20071;-81
2022/07/09 08:13:12;;;;;;;0.17;0.17;;;19.30;99.90;;;;;;6211666;23;20017;-81
2022/07/09 08:15:38;;;;;;;0.10;0.10;;;19.30;99.90;;;;;;6212563;23;20067;-83
2022/07/09 08:18:04;;;;;;;0.15;0.15;;;19.30;99.90;;;;;;6207986;23;20334;-80
2022/07/09 08:20:29;;;;;;;0.10;0.10;;;19.30;99.90;;;;;;6211398;23;20020;-86
2022/07/09 08:22:55;;;;;;;0.10;0.10;;;19.40;99.90;;;;;;6210256;23;20164;-78
2022/07/09 08:25:21;;;;;;;0.20;0.20;;;19.40;99.90;;;;;;6209715;23;20020;-85
2022/07/09 08:27:48;;;;;;;0.10;0.10;;;19.50;99.90;;;;;;6209789;23;20012;-84
2022/07/09 08:30:14;;;;;;;0.13;0.13;;;19.60;99.90;;;;;;6208459;23;20091;-86
2022/07/09 08:32:39;;;;;;;0.10;0.10;;;19.60;99.90;;;;;;6210575;23;20056;-82
2022/07/09 08:35:06;;;;;;;0.20;0.20;;;19.60;99.90;;;;;;6211063;23;20349;-83
2022/07/09 08:37:32;;;;;;;0.20;0.20;;;19.60;99.90;;;;;;6182747;23;20116;-85
2022/07/09 08:39:57;;;;;;;0.20;0.20;;;19.60;99.90;;;;;;6210068;23;20055;-85
2022/07/09 08:42:23;;;;;;;0.20;0.20;;;19.60;99.90;;;;;;6210664;23;20282;-82
2022/07/09 08:44:49;;;;;;;0.20;0.20;;;19.50;99.90;;;;;;6180777;23;20017;-85
2022/07/09 08:47:15;;;;;;;0.10;0.10;;;19.40;99.90;;;;;;6209781;23;20035;-84
2022/07/09 08:49:43;;;;;;;0.20;0.20;;;19.30;99.90;;;;;;6184448;23;20020;-86
2022/07/09 08:52:10;;;;;;;0.20;0.20;;;19.30;99.90;;;;;;6183069;23;20023;-86
2022/07/09 08:54:40;;;;;;;0.20;0.20;;;19.20;99.90;;;;;;6209940;23;20314;-86
2022/07/09 08:57:06;;;;;;;0.10;0.10;;;19.20;99.90;;;;;;6209050;23;20047;-85
2022/07/09 08:59:32;;;;;;;0.20;0.20;;;19.20;99.90;;;;;;6209118;23;20268;-87
2022/07/09 09:02:04;;;;;;;0.10;0.10;;;19.20;99.90;;;;;;6184583;23;20389;-86
2022/07/09 09:04:30;;;;;;;0.15;0.15;;;19.20;99.90;;;;;;6183580;23;20021;-85
2022/07/09 09:06:55;;;;;;;0.20;0.20;;;19.20;99.90;;;;;;6183562;23;20024;-83
2022/07/09 09:09:21;;;;;;;0.20;0.20;;;19.20;99.90;;;;;;6184184;23;20063;-83
2022/07/09 09:11:52;;;;;;;0.10;0.10;;;19.10;99.90;;;;;;6194945;23;20679;-81
2022/07/09 09:14:25;;;;;;;0.20;0.20;;;19.20;99.90;;;;;;6211439;23;20471;-81
2022/07/09 09:16:51;;;;;;;0.20;0.20;;;19.20;99.90;;;;;;6211507;23;20012;-85
2022/07/09 09:19:16;;;;;;;0.10;0.10;;;19.20;99.90;;;;;;6208342;23;20027;-84
2022/07/09 09:21:42;;;;;;;0.20;0.20;;;19.30;99.90;;;;;;6207970;23;20013;-83
2022/07/09 09:24:08;;;;;;;0.20;0.20;;;19.40;99.90;;;;;;6210257;23;20020;-82
2022/07/09 09:26:37;;;;;;;0.20;0.20;;;19.50;99.90;;;;;;6209153;23;20039;-81
2022/07/09 09:29:04;;;;;;;0.13;0.13;;;19.50;99.90;;;;;;6208004;23;20032;-83
2022/07/09 09:31:32;;;;;;;0.20;0.20;;;19.60;99.90;;;;;;6185197;23;20017;-82
2022/07/09 09:34:11;;;;;;;0.20;0.20;;;19.60;99.90;;;;;;6211230;23;20020;-81
2022/07/09 09:36:38;;;;;;;0.20;0.20;;;19.60;99.90;;;;;;6211628;23;20021;-82
2022/07/09 09:39:16;;;;;;;0.15;0.15;;;19.50;99.90;;;;;;6209781;23;20346;-81
2022/07/09 09:41:44;;;;;;;0.20;0.20;;;19.60;99.90;;;;;;6183248;23;20392;-81
2022/07/09 09:44:16;;;;;;;0.20;0.20;;;19.60;99.90;;;;;;6181600;23;20039;-82
2022/07/09 09:46:42;;;;;;;0.20;0.20;;;19.60;99.90;;;;;;6184721;23;20029;-83
2022/07/09 09:49:10;;;;;;;0.20;0.20;;;19.60;99.90;;;;;;6210785;23;20009;-81
2022/07/09 09:51:47;;;;;;;0.20;0.20;;;19.70;99.90;;;;;;6187321;23;20032;-80
2022/07/09 09:54:18;;;;;;;0.10;0.10;;;19.70;99.90;;;;;;6191442;23;20429;-80
2022/07/09 09:56:44;;;;;;;0.10;0.10;;;19.80;99.90;;;;;;6222540;23;20021;-80
2022/07/09 09:59:11;;;;;;;0.20;0.20;;;19.80;99.90;;;;;;6184707;23;20024;-81
2022/07/09 10:01:38;;;;;;;0.20;0.20;;;19.80;99.90;;;;;;6184806;23;20071;-80
2022/07/09 10:04:04;;;;;;;0.20;0.20;;;19.80;99.90;;;;;;6183573;23;20464;-80
2022/07/09 10:06:30;;;;;;;0.20;0.20;;;19.80;99.90;;;;;;6184640;23;20016;-82
2022/07/09 10:08:56;;;;;;;0.20;0.20;;;19.80;99.90;;;;;;6209803;23;20055;-82
2022/07/09 10:11:23;;;;;;;0.13;0.13;;;19.80;99.90;;;;;;6211736;23;20016;-82
2022/07/09 10:13:56;;;;;;;0.10;0.10;;;19.80;99.90;;;;;;6209615;23;20480;-80
2022/07/09 10:16:40;;;;;;;0.20;0.20;;;19.90;99.90;;;;;;6183808;23;20017;-81
2022/07/09 10:19:09;;;;;;;0.10;0.10;;;19.80;99.90;;;;;;6210572;23;20091;-82
2022/07/09 10:21:40;;;;;;;0.10;0.10;;;19.60;99.90;;;;;;6184134;23;20020;-81
2022/07/09 10:24:08;;;;;;;0.20;0.20;;;19.50;99.90;;;;;;6181856;23;20043;-81
2022/07/09 10:26:43;;;;;;;0.10;0.10;;;19.30;99.90;;;;;;6180786;23;20016;-80
2022/07/09 10:29:21;;;;;;;0.15;0.15;;;19.20;99.90;;;;;;6182242;23;20031;-85
2022/07/09 10:31:47;;;;;;;0.20;0.20;;;19.10;99.90;;;;;;6182342;23;20024;-86
2022/07/09 10:34:24;;;;;;;0.20;0.20;;;19.00;99.90;;;;;;6180665;23;20044;-83
2022/07/09 10:37:00;;;;;;;0.10;0.10;;;19.00;99.90;;;;;;6210297;23;20458;-82
2022/07/09 10:39:25;;;;;;;0.10;0.10;;;19.00;99.90;;;;;;6210299;23;20024;-84
2022/07/09 10:42:05;;;;;;;0.10;0.10;;;19.00;99.90;;;;;;6183250;23;20090;-84
2022/07/09 10:44:39;;;;;;;0.20;0.20;;;19.00;99.90;;;;;;6181880;23;20017;-83
2022/07/09 10:47:05;;;;;;;0.20;0.20;;;19.00;99.90;;;;;;6183730;23;20020;-83
2022/07/09 10:49:34;;;;;;;0.20;0.20;;;19.10;99.90;;;;;;6183883;23;20080;-82
2022/07/09 10:51:59;;;;;;;0.20;0.20;;;19.10;99.90;;;;;;6182717;23;20025;-83
2022/07/09 10:54:26;;;;;;;0.20;0.20;;;19.20;99.90;;;;;;6182252;23;20024;-83
2022/07/09 10:56:56;;;;;;;0.20;0.20;;;19.20;99.90;;;;;;6211077;23;20338;-83
2022/07/09 10:59:22;;;;;;;0.10;0.10;;;19.20;99.90;;;;;;6181323;23;20016;-83
2022/07/09 11:01:50;;;;;;;0.10;0.10;;;19.20;99.90;;;;;;6210409;23;20036;-84
2022/07/09 11:04:29;;;;;;;0.10;0.10;;;19.20;99.90;;;;;;6183720;23;20025;-82
2022/07/09 11:06:56;;;;;;;0.20;0.20;;;19.30;99.90;;;;;;6209803;23;20438;-83
2022/07/09 11:09:22;;;;;;;0.15;0.15;;;19.30;99.90;;;;;;6183413;23;20523;-85
2022/07/09 11:11:48;;;;;;;0.20;0.20;;;19.40;99.90;;;;;;6210644;23;20090;-88
2022/07/09 11:14:14;;;;;;;0.13;0.13;;;19.50;99.90;;;;;;6209392;23;20414;-84
2022/07/09 11:16:40;;;;;;;0.20;0.20;;;19.60;99.90;;;;;;6205766;23;20024;-84
2022/07/09 11:19:16;;;;;;;0.13;0.13;;;19.60;99.90;;;;;;6180578;23;20159;-83
2022/07/09 11:21:42;;;;;;;0.17;0.17;;;19.60;99.90;;;;;;6182355;23;20016;-83
2022/07/09 11:24:23;;;;;;;0.10;0.10;;;19.60;99.90;;;;;;6208595;23;20019;-84
2022/07/09 11:26:49;;;;;;;0.20;0.20;;;19.60;99.90;;;;;;6209063;23;20104;-83
2022/07/09 11:29:17;;;;;;;0.10;0.10;;;19.50;99.90;;;;;;6208571;23;20052;-87
2022/07/09 11:31:50;;;;;;;0.20;0.20;;;19.50;99.90;;;;;;6182186;23;20256;-83
2022/07/09 11:34:17;;;;;;;0.10;0.10;;;19.50;99.90;;;;;;6181508;23;20020;-84
2022/07/09 11:36:52;;;;;;;0.10;0.10;;;19.40;99.90;;;;;;6207607;23;20025;-82
2022/07/09 11:39:27;;;;;;;0.10;0.10;;;19.50;99.90;;;;;;6183376;23;20060;-84
2022/07/09 11:41:53;;;;;;;0.10;0.10;;;19.50;99.90;;;;;;6212328;23;20062;-84
2022/07/09 11:44:39;;;;;;;0.20;0.20;;;19.60;99.90;;;;;;6212970;23;20515;-81
2022/07/09 11:47:05;;;;;;;0.20;0.20;;;19.80;99.90;;;;;;6186498;23;20020;-83
2022/07/09 11:49:41;;;;;;;0.10;0.10;;;19.70;99.90;;;;;;6207304;23;20078;-84
2022/07/09 11:52:18;;;;;;;0.10;0.10;;;19.70;99.90;;;;;;6226041;23;20011;-82
2022/07/09 11:55:07;;;;;;;0.20;0.20;;;19.70;99.90;;;;;;6206202;23;20028;-83
2022/07/09 11:57:39;;;;;;;0.20;0.20;;;19.90;99.90;;;;;;6214382;23;20510;-83
2022/07/09 12:00:07;;;;;;;0.10;0.10;;;19.80;99.90;;;;;;6184201;23;20055;-83
2022/07/09 12:02:38;;;;;;;0.20;0.20;;;19.90;99.90;;;;;;6184141;23;20222;-81
2022/07/09 12:05:09;;;;;;;0.20;0.20;;;19.90;99.90;;;;;;6185481;23;20139;-83
2022/07/09 12:07:35;;;;;;;0.20;0.20;;;19.80;99.90;;;;;;6210219;23;20024;-80
2022/07/09 12:10:09;;;;;;;0.10;0.10;;;19.80;99.90;;;;;;6182431;23;20023;-82
2022/07/09 12:12:36;;;;;;;0.20;0.20;;;19.80;99.90;;;;;;6211217;23;20310;-82
2022/07/09 12:15:04;;;;;;;0.20;0.20;;;19.80;99.90;;;;;;6209911;23;20441;-83
2022/07/09 12:17:31;;;;;;;0.17;0.17;;;19.80;99.90;;;;;;6183830;23;20016;-82
2022/07/09 12:20:06;;;;;;;0.20;0.20;;;19.90;99.90;;;;;;6211634;23;20025;-81
2022/07/09 12:22:35;;;;;;;0.13;0.13;;;20.00;99.90;;;;;;6210931;23;20009;-86
2022/07/09 12:25:04;;;;;;;0.20;0.20;;;20.00;99.90;;;;;;6211979;23;20084;-80
2022/07/09 12:27:30;;;;;;;0.15;0.15;;;20.00;99.90;;;;;;6215734;23;20013;-82
2022/07/09 12:29:55;;;;;;;0.20;0.20;;;20.10;99.90;;;;;;6207153;23;20078;-82
2022/07/09 12:32:21;;;;;;;0.20;0.20;;;20.10;99.90;;;;;;6210323;23;20016;-81
2022/07/09 12:34:46;;;;;;;0.20;0.20;;;20.20;99.90;;;;;;6183393;23;20384;-80
2022/07/09 12:37:12;;;;;;;0.20;0.20;;;20.20;99.90;;;;;;6204655;23;20020;-81
2022/07/09 12:39:38;;;;;;;0.20;0.20;;;20.20;99.90;;;;;;6208414;23;20023;-80
2022/07/09 12:42:03;;;;;;;0.20;0.20;;;20.20;99.90;;;;;;6209117;23;20476;-81
2022/07/09 12:44:29;;;;;;;0.10;0.10;;;20.20;99.90;;;;;;6209260;23;20012;-83
2022/07/09 12:46:55;;;;;;;0.20;0.20;;;20.30;99.90;;;;;;6209831;23;20336;-82